sensor_id;sensor_type;location;lat;lon;timestamp;P1;durP1;ratioP1;P2;durP2;ratioP2
51614;SDS011;37695;52.960;6.188;2022-07-15T00:02:11;5.53;;;2.33;;
51614;SDS011;37695;52.960;6.188;2022-07-15T00:04:37;5.57;;;2.10;;
51614;SDS011;37695;52.960;6.188;2022-07-15T00:07:03;5.28;;;2.30;;
51614;SDS011;37695;52.960;6.188;2022-07-15T00:09:29;5.32;;;2.08;;
51614;SDS011;37695;52.960;6.188;2022-07-15T00:12:15;5.32;;;2.10;;
51614;SDS011;37695;52.960;6.188;2022-07-15T00:14:41;5.35;;;2.20;;
51614;SDS011;37695;52.960;6.188;2022-07-15T00:17:07;5.65;;;1.95;;
51614;SDS011;37695;52.960;6.188;2022-07-15T00:19:33;4.35;;;2.08;;
51614;SDS011;37695;52.960;6.188;2022-07-15T00:21:59;5.38;;;2.05;;
51614;SDS011;37695;52.960;6.188;2022-07-15T00:24:24;7.05;;;1.92;;
51614;SDS011;37695;52.960;6.188;2022-07-15T00:26:50;4.03;;;1.90;;
51614;SDS011;37695;52.960;6.188;2022-07-15T00:29:16;8.07;;;2.30;;
51614;SDS011;37695;52.960;6.188;2022-07-15T00:31:41;5.65;;;2.50;;
51614;SDS011;37695;52.960;6.188;2022-07-15T00:34:07;4.93;;;1.77;;
51614;SDS011;37695;52.960;6.188;2022-07-15T00:36:32;5.22;;;1.90;;
51614;SDS011;37695;52.960;6.188;2022-07-15T00:38:58;5.68;;;2.00;;
51614;SDS011;37695;52.960;6.188;2022-07-15T00:41:24;5.20;;;2.30;;
51614;SDS011;37695;52.960;6.188;2022-07-15T00:43:50;3.55;;;1.77;;
51614;SDS011;37695;52.960;6.188;2022-07-15T00:46:19;6.50;;;2.28;;
51614;SDS011;37695;52.960;6.188;2022-07-15T00:48:46;7.90;;;2.38;;
51614;SDS011;37695;52.960;6.188;2022-07-15T00:51:12;4.60;;;2.00;;
51614;SDS011;37695;52.960;6.188;2022-07-15T00:53:38;7.82;;;1.90;;
51614;SDS011;37695;52.960;6.188;2022-07-15T00:56:04;5.78;;;2.45;;
51614;SDS011;37695;52.960;6.188;2022-07-15T00:58:33;4.00;;;1.70;;
51614;SDS011;37695;52.960;6.188;2022-07-15T01:01:02;5.20;;;2.13;;
51614;SDS011;37695;52.960;6.188;2022-07-15T01:03:30;4.45;;;1.88;;
51614;SDS011;37695;52.960;6.188;2022-07-15T01:05:57;5.93;;;2.40;;
51614;SDS011;37695;52.960;6.188;2022-07-15T01:08:23;5.13;;;1.88;;
51614;SDS011;37695;52.960;6.188;2022-07-15T01:10:49;5.75;;;2.33;;
51614;SDS011;37695;52.960;6.188;2022-07-15T01:13:16;5.03;;;2.05;;
51614;SDS011;37695;52.960;6.188;2022-07-15T01:15:45;5.40;;;1.85;;
51614;SDS011;37695;52.960;6.188;2022-07-15T01:18:11;5.90;;;1.98;;
51614;SDS011;37695;52.960;6.188;2022-07-15T01:20:42;5.10;;;2.20;;
51614;SDS011;37695;52.960;6.188;2022-07-15T01:25:37;7.68;;;1.90;;
51614;SDS011;37695;52.960;6.188;2022-07-15T01:28:04;5.80;;;2.00;;
51614;SDS011;37695;52.960;6.188;2022-07-15T01:30:31;6.80;;;1.90;;
51614;SDS011;37695;52.960;6.188;2022-07-15T01:32:57;7.03;;;2.00;;
51614;SDS011;37695;52.960;6.188;2022-07-15T01:35:23;7.40;;;2.28;;
51614;SDS011;37695;52.960;6.188;2022-07-15T01:37:48;6.40;;;1.92;;
51614;SDS011;37695;52.960;6.188;2022-07-15T01:40:14;5.32;;;2.05;;
51614;SDS011;37695;52.960;6.188;2022-07-15T01:42:39;5.30;;;2.28;;
51614;SDS011;37695;52.960;6.188;2022-07-15T01:45:05;6.53;;;2.08;;
51614;SDS011;37695;52.960;6.188;2022-07-15T01:47:33;5.30;;;1.98;;
51614;SDS011;37695;52.960;6.188;2022-07-15T01:50:05;5.38;;;2.00;;
51614;SDS011;37695;52.960;6.188;2022-07-15T01:52:31;5.90;;;1.95;;
51614;SDS011;37695;52.960;6.188;2022-07-15T01:54:57;6.97;;;2.33;;
51614;SDS011;37695;52.960;6.188;2022-07-15T01:57:22;5.50;;;1.88;;
51614;SDS011;37695;52.960;6.188;2022-07-15T01:59:48;5.50;;;1.83;;
51614;SDS011;37695;52.960;6.188;2022-07-15T02:02:14;6.95;;;2.30;;
51614;SDS011;37695;52.960;6.188;2022-07-15T02:04:40;6.32;;;2.10;;
51614;SDS011;37695;52.960;6.188;2022-07-15T02:07:05;5.45;;;2.00;;
51614;SDS011;37695;52.960;6.188;2022-07-15T02:09:31;4.82;;;1.98;;
51614;SDS011;37695;52.960;6.188;2022-07-15T02:11:57;4.30;;;1.80;;
51614;SDS011;37695;52.960;6.188;2022-07-15T02:14:22;7.15;;;2.42;;
51614;SDS011;37695;52.960;6.188;2022-07-15T02:16:48;7.15;;;2.13;;
51614;SDS011;37695;52.960;6.188;2022-07-15T02:19:13;5.78;;;2.13;;
51614;SDS011;37695;52.960;6.188;2022-07-15T02:21:39;5.00;;;1.67;;
51614;SDS011;37695;52.960;6.188;2022-07-15T02:24:05;5.65;;;1.92;;
51614;SDS011;37695;52.960;6.188;2022-07-15T02:26:30;4.90;;;1.98;;
51614;SDS011;37695;52.960;6.188;2022-07-15T02:28:56;4.47;;;1.90;;
51614;SDS011;37695;52.960;6.188;2022-07-15T02:31:22;5.25;;;1.77;;
51614;SDS011;37695;52.960;6.188;2022-07-15T02:33:48;4.25;;;1.83;;
51614;SDS011;37695;52.960;6.188;2022-07-15T02:36:14;3.72;;;1.80;;
51614;SDS011;37695;52.960;6.188;2022-07-15T02:38:39;4.93;;;1.90;;
51614;SDS011;37695;52.960;6.188;2022-07-15T02:41:06;5.13;;;1.50;;
51614;SDS011;37695;52.960;6.188;2022-07-15T02:43:31;4.00;;;1.50;;
51614;SDS011;37695;52.960;6.188;2022-07-15T02:45:57;5.65;;;1.95;;
51614;SDS011;37695;52.960;6.188;2022-07-15T02:48:23;3.78;;;1.48;;
51614;SDS011;37695;52.960;6.188;2022-07-15T02:50:48;5.13;;;1.77;;
51614;SDS011;37695;52.960;6.188;2022-07-15T02:53:14;5.53;;;2.20;;
51614;SDS011;37695;52.960;6.188;2022-07-15T02:55:40;5.13;;;1.70;;
51614;SDS011;37695;52.960;6.188;2022-07-15T02:58:05;4.68;;;1.67;;
51614;SDS011;37695;52.960;6.188;2022-07-15T03:00:31;5.32;;;1.88;;
51614;SDS011;37695;52.960;6.188;2022-07-15T03:02:58;4.75;;;1.48;;
51614;SDS011;37695;52.960;6.188;2022-07-15T03:05:24;3.80;;;1.45;;
51614;SDS011;37695;52.960;6.188;2022-07-15T03:07:50;4.70;;;1.52;;
51614;SDS011;37695;52.960;6.188;2022-07-15T03:10:16;4.45;;;1.55;;
51614;SDS011;37695;52.960;6.188;2022-07-15T03:12:42;3.13;;;1.50;;
51614;SDS011;37695;52.960;6.188;2022-07-15T03:15:07;3.10;;;1.35;;
51614;SDS011;37695;52.960;6.188;2022-07-15T03:17:34;3.30;;;1.55;;
51614;SDS011;37695;52.960;6.188;2022-07-15T03:19:59;5.88;;;1.45;;
51614;SDS011;37695;52.960;6.188;2022-07-15T03:22:25;4.60;;;1.55;;
51614;SDS011;37695;52.960;6.188;2022-07-15T03:24:52;3.08;;;1.45;;
51614;SDS011;37695;52.960;6.188;2022-07-15T03:27:19;3.50;;;1.27;;
51614;SDS011;37695;52.960;6.188;2022-07-15T03:29:44;4.57;;;1.60;;
51614;SDS011;37695;52.960;6.188;2022-07-15T03:32:10;4.65;;;1.48;;
51614;SDS011;37695;52.960;6.188;2022-07-15T03:34:37;3.00;;;1.27;;
51614;SDS011;37695;52.960;6.188;2022-07-15T03:37:02;4.18;;;1.50;;
51614;SDS011;37695;52.960;6.188;2022-07-15T03:39:28;4.85;;;1.40;;
51614;SDS011;37695;52.960;6.188;2022-07-15T03:41:54;2.67;;;1.30;;
51614;SDS011;37695;52.960;6.188;2022-07-15T03:44:19;2.67;;;1.48;;
51614;SDS011;37695;52.960;6.188;2022-07-15T03:46:45;5.05;;;1.67;;
51614;SDS011;37695;52.960;6.188;2022-07-15T03:49:11;6.05;;;1.48;;
51614;SDS011;37695;52.960;6.188;2022-07-15T03:51:38;3.83;;;1.73;;
51614;SDS011;37695;52.960;6.188;2022-07-15T03:54:03;4.82;;;1.35;;
51614;SDS011;37695;52.960;6.188;2022-07-15T03:56:29;4.47;;;1.73;;
51614;SDS011;37695;52.960;6.188;2022-07-15T03:58:56;3.92;;;1.70;;
51614;SDS011;37695;52.960;6.188;2022-07-15T04:01:22;6.80;;;1.65;;
51614;SDS011;37695;52.960;6.188;2022-07-15T04:03:48;5.35;;;1.90;;
51614;SDS011;37695;52.960;6.188;2022-07-15T04:06:15;5.10;;;1.90;;
51614;SDS011;37695;52.960;6.188;2022-07-15T04:08:41;4.57;;;1.55;;
51614;SDS011;37695;52.960;6.188;2022-07-15T04:11:07;4.63;;;1.85;;
51614;SDS011;37695;52.960;6.188;2022-07-15T04:13:33;4.82;;;1.85;;
51614;SDS011;37695;52.960;6.188;2022-07-15T04:15:59;5.10;;;1.70;;
51614;SDS011;37695;52.960;6.188;2022-07-15T04:18:25;5.93;;;1.80;;
51614;SDS011;37695;52.960;6.188;2022-07-15T04:20:51;3.63;;;1.58;;
51614;SDS011;37695;52.960;6.188;2022-07-15T04:23:16;6.78;;;1.70;;
51614;SDS011;37695;52.960;6.188;2022-07-15T04:25:42;2.70;;;1.25;;
51614;SDS011;37695;52.960;6.188;2022-07-15T04:28:08;4.20;;;1.55;;
51614;SDS011;37695;52.960;6.188;2022-07-15T04:30:33;2.45;;;1.38;;
51614;SDS011;37695;52.960;6.188;2022-07-15T04:32:59;4.38;;;1.73;;
51614;SDS011;37695;52.960;6.188;2022-07-15T04:35:25;4.45;;;1.50;;
51614;SDS011;37695;52.960;6.188;2022-07-15T04:37:50;3.72;;;1.33;;
51614;SDS011;37695;52.960;6.188;2022-07-15T04:40:16;3.78;;;1.50;;
51614;SDS011;37695;52.960;6.188;2022-07-15T04:42:42;5.15;;;1.70;;
51614;SDS011;37695;52.960;6.188;2022-07-15T04:45:07;4.70;;;1.40;;
51614;SDS011;37695;52.960;6.188;2022-07-15T04:47:33;4.40;;;1.55;;
51614;SDS011;37695;52.960;6.188;2022-07-15T04:49:59;3.75;;;1.52;;
51614;SDS011;37695;52.960;6.188;2022-07-15T04:52:43;6.85;;;1.88;;
51614;SDS011;37695;52.960;6.188;2022-07-15T04:55:09;4.90;;;1.55;;
51614;SDS011;37695;52.960;6.188;2022-07-15T04:57:35;2.58;;;1.27;;
51614;SDS011;37695;52.960;6.188;2022-07-15T05:00:01;2.90;;;1.30;;
51614;SDS011;37695;52.960;6.188;2022-07-15T05:02:27;5.43;;;1.60;;
51614;SDS011;37695;52.960;6.188;2022-07-15T05:04:53;3.22;;;1.40;;
51614;SDS011;37695;52.960;6.188;2022-07-15T05:07:18;3.03;;;1.30;;
51614;SDS011;37695;52.960;6.188;2022-07-15T05:09:44;3.35;;;1.33;;
51614;SDS011;37695;52.960;6.188;2022-07-15T05:12:10;3.22;;;1.17;;
51614;SDS011;37695;52.960;6.188;2022-07-15T05:14:35;3.70;;;1.17;;
51614;SDS011;37695;52.960;6.188;2022-07-15T05:17:03;4.25;;;1.35;;
51614;SDS011;37695;52.960;6.188;2022-07-15T05:19:28;3.75;;;1.45;;
51614;SDS011;37695;52.960;6.188;2022-07-15T05:21:54;1.92;;;1.13;;
51614;SDS011;37695;52.960;6.188;2022-07-15T05:24:20;3.38;;;1.27;;
51614;SDS011;37695;52.960;6.188;2022-07-15T05:26:46;2.72;;;1.20;;
51614;SDS011;37695;52.960;6.188;2022-07-15T05:29:11;2.70;;;1.20;;
51614;SDS011;37695;52.960;6.188;2022-07-15T05:31:37;3.17;;;1.10;;
51614;SDS011;37695;52.960;6.188;2022-07-15T05:34:03;3.22;;;1.02;;
51614;SDS011;37695;52.960;6.188;2022-07-15T05:36:29;2.33;;;1.00;;
51614;SDS011;37695;52.960;6.188;2022-07-15T05:38:54;3.10;;;0.90;;
51614;SDS011;37695;52.960;6.188;2022-07-15T05:41:20;2.78;;;1.13;;
51614;SDS011;37695;52.960;6.188;2022-07-15T05:43:46;4.63;;;1.17;;
51614;SDS011;37695;52.960;6.188;2022-07-15T05:46:11;2.05;;;0.82;;
51614;SDS011;37695;52.960;6.188;2022-07-15T05:48:37;3.05;;;1.13;;
51614;SDS011;37695;52.960;6.188;2022-07-15T05:51:04;1.67;;;0.90;;
51614;SDS011;37695;52.960;6.188;2022-07-15T05:53:30;1.38;;;0.85;;
51614;SDS011;37695;52.960;6.188;2022-07-15T05:55:56;3.70;;;1.17;;
51614;SDS011;37695;52.960;6.188;2022-07-15T05:58:23;1.77;;;1.00;;
51614;SDS011;37695;52.960;6.188;2022-07-15T06:00:50;2.63;;;1.10;;
51614;SDS011;37695;52.960;6.188;2022-07-15T06:03:16;1.80;;;0.80;;
51614;SDS011;37695;52.960;6.188;2022-07-15T06:05:41;1.90;;;1.00;;
51614;SDS011;37695;52.960;6.188;2022-07-15T06:08:07;3.85;;;1.20;;
51614;SDS011;37695;52.960;6.188;2022-07-15T06:10:33;3.28;;;1.10;;
51614;SDS011;37695;52.960;6.188;2022-07-15T06:12:59;2.38;;;1.20;;
51614;SDS011;37695;52.960;6.188;2022-07-15T06:15:25;2.67;;;1.10;;
51614;SDS011;37695;52.960;6.188;2022-07-15T06:17:50;1.92;;;1.10;;
51614;SDS011;37695;52.960;6.188;2022-07-15T06:20:16;1.52;;;0.90;;
51614;SDS011;37695;52.960;6.188;2022-07-15T06:22:42;2.90;;;1.20;;
51614;SDS011;37695;52.960;6.188;2022-07-15T06:25:08;1.15;;;0.93;;
51614;SDS011;37695;52.960;6.188;2022-07-15T06:27:34;2.65;;;1.23;;
51614;SDS011;37695;52.960;6.188;2022-07-15T06:30:00;1.30;;;0.70;;
51614;SDS011;37695;52.960;6.188;2022-07-15T06:32:26;2.45;;;0.98;;
51614;SDS011;37695;52.960;6.188;2022-07-15T06:34:52;1.35;;;0.60;;
51614;SDS011;37695;52.960;6.188;2022-07-15T06:37:17;1.98;;;0.60;;
51614;SDS011;37695;52.960;6.188;2022-07-15T06:39:43;1.30;;;0.70;;
51614;SDS011;37695;52.960;6.188;2022-07-15T06:42:08;2.47;;;1.05;;
51614;SDS011;37695;52.960;6.188;2022-07-15T06:44:35;2.45;;;0.90;;
51614;SDS011;37695;52.960;6.188;2022-07-15T06:47:01;2.20;;;0.70;;
51614;SDS011;37695;52.960;6.188;2022-07-15T06:49:28;4.47;;;0.73;;
51614;SDS011;37695;52.960;6.188;2022-07-15T06:51:53;1.70;;;0.73;;
51614;SDS011;37695;52.960;6.188;2022-07-15T06:54:19;2.92;;;0.70;;
51614;SDS011;37695;52.960;6.188;2022-07-15T06:56:45;1.23;;;0.77;;
51614;SDS011;37695;52.960;6.188;2022-07-15T06:59:11;2.45;;;0.75;;
51614;SDS011;37695;52.960;6.188;2022-07-15T07:01:37;3.38;;;0.70;;
51614;SDS011;37695;52.960;6.188;2022-07-15T07:04:02;2.03;;;0.77;;
51614;SDS011;37695;52.960;6.188;2022-07-15T07:06:28;2.08;;;0.60;;
51614;SDS011;37695;52.960;6.188;2022-07-15T07:08:54;2.42;;;0.82;;
51614;SDS011;37695;52.960;6.188;2022-07-15T07:11:20;1.83;;;0.77;;
51614;SDS011;37695;52.960;6.188;2022-07-15T07:13:46;1.55;;;0.60;;
51614;SDS011;37695;52.960;6.188;2022-07-15T07:16:12;2.30;;;0.75;;
51614;SDS011;37695;52.960;6.188;2022-07-15T07:18:38;3.13;;;0.88;;
51614;SDS011;37695;52.960;6.188;2022-07-15T07:21:03;2.10;;;0.70;;
51614;SDS011;37695;52.960;6.188;2022-07-15T07:23:29;1.27;;;0.60;;
51614;SDS011;37695;52.960;6.188;2022-07-15T07:25:55;2.22;;;0.60;;
51614;SDS011;37695;52.960;6.188;2022-07-15T07:28:21;0.70;;;0.40;;
51614;SDS011;37695;52.960;6.188;2022-07-15T07:30:47;0.70;;;0.50;;
51614;SDS011;37695;52.960;6.188;2022-07-15T07:33:15;2.03;;;0.50;;
51614;SDS011;37695;52.960;6.188;2022-07-15T07:35:40;5.15;;;0.70;;
51614;SDS011;37695;52.960;6.188;2022-07-15T07:38:07;4.03;;;0.57;;
51614;SDS011;37695;52.960;6.188;2022-07-15T07:40:34;1.13;;;0.50;;
51614;SDS011;37695;52.960;6.188;2022-07-15T07:42:59;1.75;;;0.68;;
51614;SDS011;37695;52.960;6.188;2022-07-15T07:45:25;2.05;;;0.80;;
51614;SDS011;37695;52.960;6.188;2022-07-15T07:47:53;1.67;;;0.60;;
51614;SDS011;37695;52.960;6.188;2022-07-15T07:50:22;1.35;;;0.63;;
51614;SDS011;37695;52.960;6.188;2022-07-15T07:52:48;0.88;;;0.40;;
51614;SDS011;37695;52.960;6.188;2022-07-15T07:55:14;1.45;;;0.65;;
51614;SDS011;37695;52.960;6.188;2022-07-15T07:57:46;6.25;;;0.70;;
51614;SDS011;37695;52.960;6.188;2022-07-15T08:00:17;1.60;;;0.75;;
51614;SDS011;37695;52.960;6.188;2022-07-15T08:02:43;3.88;;;0.70;;
51614;SDS011;37695;52.960;6.188;2022-07-15T08:05:10;2.25;;;0.52;;
51614;SDS011;37695;52.960;6.188;2022-07-15T08:07:35;2.22;;;0.47;;
51614;SDS011;37695;52.960;6.188;2022-07-15T08:10:02;1.35;;;0.47;;
51614;SDS011;37695;52.960;6.188;2022-07-15T08:12:28;3.33;;;0.70;;
51614;SDS011;37695;52.960;6.188;2022-07-15T08:14:54;0.63;;;0.40;;
51614;SDS011;37695;52.960;6.188;2022-07-15T08:17:20;1.33;;;0.40;;
51614;SDS011;37695;52.960;6.188;2022-07-15T08:19:46;2.00;;;0.40;;
51614;SDS011;37695;52.960;6.188;2022-07-15T08:22:12;1.13;;;0.52;;
51614;SDS011;37695;52.960;6.188;2022-07-15T08:24:38;1.30;;;0.52;;
51614;SDS011;37695;52.960;6.188;2022-07-15T08:27:04;0.20;;;0.20;;
51614;SDS011;37695;52.960;6.188;2022-07-15T08:29:30;1.42;;;0.40;;
51614;SDS011;37695;52.960;6.188;2022-07-15T08:31:55;1.33;;;0.50;;
51614;SDS011;37695;52.960;6.188;2022-07-15T08:34:21;1.05;;;0.40;;
51614;SDS011;37695;52.960;6.188;2022-07-15T08:36:46;0.52;;;0.45;;
51614;SDS011;37695;52.960;6.188;2022-07-15T08:39:12;1.15;;;0.68;;
51614;SDS011;37695;52.960;6.188;2022-07-15T08:41:38;3.10;;;0.60;;
51614;SDS011;37695;52.960;6.188;2022-07-15T08:44:04;0.60;;;0.50;;
51614;SDS011;37695;52.960;6.188;2022-07-15T08:46:30;0.57;;;0.40;;
51614;SDS011;37695;52.960;6.188;2022-07-15T08:48:58;0.65;;;0.50;;
51614;SDS011;37695;52.960;6.188;2022-07-15T08:51:29;3.03;;;0.70;;
51614;SDS011;37695;52.960;6.188;2022-07-15T08:53:57;1.52;;;0.40;;
51614;SDS011;37695;52.960;6.188;2022-07-15T08:56:23;1.25;;;0.57;;
51614;SDS011;37695;52.960;6.188;2022-07-15T08:58:49;1.52;;;0.50;;
51614;SDS011;37695;52.960;6.188;2022-07-15T09:01:14;2.08;;;0.57;;
51614;SDS011;37695;52.960;6.188;2022-07-15T09:03:41;0.57;;;0.40;;
51614;SDS011;37695;52.960;6.188;2022-07-15T09:06:06;1.88;;;0.50;;
51614;SDS011;37695;52.960;6.188;2022-07-15T09:08:32;1.65;;;0.43;;
51614;SDS011;37695;52.960;6.188;2022-07-15T09:10:59;0.73;;;0.40;;
51614;SDS011;37695;52.960;6.188;2022-07-15T09:13:29;0.50;;;0.40;;
51614;SDS011;37695;52.960;6.188;2022-07-15T09:15:56;2.15;;;0.60;;
51614;SDS011;37695;52.960;6.188;2022-07-15T09:18:27;2.28;;;0.60;;
51614;SDS011;37695;52.960;6.188;2022-07-15T09:20:55;1.35;;;0.50;;
51614;SDS011;37695;52.960;6.188;2022-07-15T09:23:23;0.70;;;0.50;;
51614;SDS011;37695;52.960;6.188;2022-07-15T09:26:01;0.68;;;0.50;;
51614;SDS011;37695;52.960;6.188;2022-07-15T09:28:58;2.25;;;0.60;;
51614;SDS011;37695;52.960;6.188;2022-07-15T09:31:32;1.38;;;0.50;;
51614;SDS011;37695;52.960;6.188;2022-07-15T09:34:17;1.40;;;0.50;;
51614;SDS011;37695;52.960;6.188;2022-07-15T09:36:45;1.23;;;0.50;;
51614;SDS011;37695;52.960;6.188;2022-07-15T09:39:22;0.98;;;0.40;;
51614;SDS011;37695;52.960;6.188;2022-07-15T09:41:49;0.40;;;0.40;;
51614;SDS011;37695;52.960;6.188;2022-07-15T09:44:20;0.22;;;0.20;;
51614;SDS011;37695;52.960;6.188;2022-07-15T09:51:50;0.95;;;0.50;;
51614;SDS011;37695;52.960;6.188;2022-07-15T09:54:29;1.05;;;0.40;;
51614;SDS011;37695;52.960;6.188;2022-07-15T09:56:56;0.85;;;0.55;;
51614;SDS011;37695;52.960;6.188;2022-07-15T09:59:24;1.75;;;0.70;;
51614;SDS011;37695;52.960;6.188;2022-07-15T10:01:50;1.75;;;0.70;;
51614;SDS011;37695;52.960;6.188;2022-07-15T10:04:17;1.45;;;0.60;;
51614;SDS011;37695;52.960;6.188;2022-07-15T10:06:44;2.03;;;0.60;;
51614;SDS011;37695;52.960;6.188;2022-07-15T10:09:13;0.98;;;0.50;;
51614;SDS011;37695;52.960;6.188;2022-07-15T10:11:40;1.65;;;0.43;;
51614;SDS011;37695;52.960;6.188;2022-07-15T10:28:14;0.70;;;0.40;;
51614;SDS011;37695;52.960;6.188;2022-07-15T10:30:42;3.20;;;0.70;;
51614;SDS011;37695;52.960;6.188;2022-07-15T10:33:16;0.88;;;0.50;;
51614;SDS011;37695;52.960;6.188;2022-07-15T10:35:49;2.30;;;0.70;;
51614;SDS011;37695;52.960;6.188;2022-07-15T10:38:21;1.75;;;0.70;;
51614;SDS011;37695;52.960;6.188;2022-07-15T10:43:41;1.95;;;0.55;;
51614;SDS011;37695;52.960;6.188;2022-07-15T10:51:08;2.30;;;0.50;;
51614;SDS011;37695;52.960;6.188;2022-07-15T10:53:53;0.80;;;0.40;;
51614;SDS011;37695;52.960;6.188;2022-07-15T10:56:31;1.75;;;0.50;;
51614;SDS011;37695;52.960;6.188;2022-07-15T10:59:12;1.00;;;0.40;;
51614;SDS011;37695;52.960;6.188;2022-07-15T11:02:09;1.15;;;0.50;;
51614;SDS011;37695;52.960;6.188;2022-07-15T11:04:29;1.20;;;0.40;;
51614;SDS011;37695;52.960;6.188;2022-07-15T11:12:12;0.82;;;0.45;;
51614;SDS011;37695;52.960;6.188;2022-07-15T11:17:09;0.60;;;0.40;;
51614;SDS011;37695;52.960;6.188;2022-07-15T11:19:35;2.22;;;0.47;;
51614;SDS011;37695;52.960;6.188;2022-07-15T11:22:01;1.45;;;0.50;;
51614;SDS011;37695;52.960;6.188;2022-07-15T11:24:28;0.68;;;0.40;;
51614;SDS011;37695;52.960;6.188;2022-07-15T11:26:53;0.52;;;0.40;;
51614;SDS011;37695;52.960;6.188;2022-07-15T11:29:19;0.80;;;0.57;;
51614;SDS011;37695;52.960;6.188;2022-07-15T11:31:45;0.65;;;0.32;;
51614;SDS011;37695;52.960;6.188;2022-07-15T11:34:13;1.08;;;0.40;;
51614;SDS011;37695;52.960;6.188;2022-07-15T11:36:38;1.20;;;0.50;;
51614;SDS011;37695;52.960;6.188;2022-07-15T11:39:04;0.77;;;0.50;;
51614;SDS011;37695;52.960;6.188;2022-07-15T11:41:30;2.22;;;0.55;;
51614;SDS011;37695;52.960;6.188;2022-07-15T11:44:14;1.23;;;0.40;;
51614;SDS011;37695;52.960;6.188;2022-07-15T11:46:56;0.75;;;0.55;;
51614;SDS011;37695;52.960;6.188;2022-07-15T11:49:32;1.75;;;0.52;;
51614;SDS011;37695;52.960;6.188;2022-07-15T11:51:59;1.05;;;0.47;;
51614;SDS011;37695;52.960;6.188;2022-07-15T11:54:26;0.75;;;0.40;;
51614;SDS011;37695;52.960;6.188;2022-07-15T11:56:53;1.63;;;0.50;;
51614;SDS011;37695;52.960;6.188;2022-07-15T11:59:19;1.40;;;0.38;;
51614;SDS011;37695;52.960;6.188;2022-07-15T12:01:45;1.27;;;0.60;;
51614;SDS011;37695;52.960;6.188;2022-07-15T12:04:10;0.20;;;0.20;;
51614;SDS011;37695;52.960;6.188;2022-07-15T12:06:36;1.20;;;0.50;;
51614;SDS011;37695;52.960;6.188;2022-07-15T12:09:03;1.45;;;0.60;;
51614;SDS011;37695;52.960;6.188;2022-07-15T12:11:33;0.73;;;0.30;;
51614;SDS011;37695;52.960;6.188;2022-07-15T12:14:02;4.88;;;0.90;;
51614;SDS011;37695;52.960;6.188;2022-07-15T12:16:36;1.08;;;0.50;;
51614;SDS011;37695;52.960;6.188;2022-07-15T12:19:17;1.60;;;0.50;;
51614;SDS011;37695;52.960;6.188;2022-07-15T12:21:54;1.55;;;0.50;;
51614;SDS011;37695;52.960;6.188;2022-07-15T12:24:23;0.45;;;0.40;;
51614;SDS011;37695;52.960;6.188;2022-07-15T12:29:18;1.45;;;0.50;;
51614;SDS011;37695;52.960;6.188;2022-07-15T12:31:55;2.20;;;0.80;;
51614;SDS011;37695;52.960;6.188;2022-07-15T12:37:13;0.68;;;0.50;;
51614;SDS011;37695;52.960;6.188;2022-07-15T12:42:32;2.00;;;0.75;;
51614;SDS011;37695;52.960;6.188;2022-07-15T12:47:31;0.80;;;0.70;;
51614;SDS011;37695;52.960;6.188;2022-07-15T12:49:58;2.88;;;0.63;;
51614;SDS011;37695;52.960;6.188;2022-07-15T12:52:35;1.35;;;0.50;;
51614;SDS011;37695;52.960;6.188;2022-07-15T12:55:12;1.30;;;0.50;;
51614;SDS011;37695;52.960;6.188;2022-07-15T12:57:38;1.15;;;0.60;;
51614;SDS011;37695;52.960;6.188;2022-07-15T13:00:05;2.50;;;0.65;;
51614;SDS011;37695;52.960;6.188;2022-07-15T13:02:53;12.38;;;2.10;;
51614;SDS011;37695;52.960;6.188;2022-07-15T13:05:25;1.55;;;0.60;;
51614;SDS011;37695;52.960;6.188;2022-07-15T13:07:56;0.80;;;0.60;;
51614;SDS011;37695;52.960;6.188;2022-07-15T13:10:22;0.85;;;0.52;;
51614;SDS011;37695;52.960;6.188;2022-07-15T13:12:48;0.85;;;0.70;;
51614;SDS011;37695;52.960;6.188;2022-07-15T13:15:14;2.67;;;0.85;;
51614;SDS011;37695;52.960;6.188;2022-07-15T13:17:39;1.52;;;0.77;;
51614;SDS011;37695;52.960;6.188;2022-07-15T13:20:05;2.13;;;0.60;;
51614;SDS011;37695;52.960;6.188;2022-07-15T13:22:32;1.42;;;0.70;;
51614;SDS011;37695;52.960;6.188;2022-07-15T13:24:58;2.45;;;0.98;;
51614;SDS011;37695;52.960;6.188;2022-07-15T13:27:24;1.38;;;0.70;;
51614;SDS011;37695;52.960;6.188;2022-07-15T13:29:50;2.55;;;0.88;;
51614;SDS011;37695;52.960;6.188;2022-07-15T13:32:16;0.80;;;0.70;;
51614;SDS011;37695;52.960;6.188;2022-07-15T13:34:41;1.17;;;0.70;;
51614;SDS011;37695;52.960;6.188;2022-07-15T13:37:07;1.40;;;0.85;;
51614;SDS011;37695;52.960;6.188;2022-07-15T13:39:33;1.85;;;0.90;;
51614;SDS011;37695;52.960;6.188;2022-07-15T13:41:59;1.30;;;0.70;;
51614;SDS011;37695;52.960;6.188;2022-07-15T13:44:24;2.03;;;0.73;;
51614;SDS011;37695;52.960;6.188;2022-07-15T13:46:50;2.08;;;0.70;;
51614;SDS011;37695;52.960;6.188;2022-07-15T13:49:15;1.55;;;0.88;;
51614;SDS011;37695;52.960;6.188;2022-07-15T13:51:41;1.45;;;0.63;;
51614;SDS011;37695;52.960;6.188;2022-07-15T13:54:07;1.25;;;0.68;;
51614;SDS011;37695;52.960;6.188;2022-07-15T13:56:36;1.60;;;0.55;;
51614;SDS011;37695;52.960;6.188;2022-07-15T13:59:02;0.77;;;0.70;;
51614;SDS011;37695;52.960;6.188;2022-07-15T14:01:29;0.70;;;0.60;;
51614;SDS011;37695;52.960;6.188;2022-07-15T14:03:58;1.38;;;0.80;;
51614;SDS011;37695;52.960;6.188;2022-07-15T14:06:24;2.80;;;0.68;;
51614;SDS011;37695;52.960;6.188;2022-07-15T14:08:50;0.70;;;0.60;;
51614;SDS011;37695;52.960;6.188;2022-07-15T14:11:16;0.63;;;0.52;;
51614;SDS011;37695;52.960;6.188;2022-07-15T14:13:42;0.60;;;0.60;;
51614;SDS011;37695;52.960;6.188;2022-07-15T14:16:08;2.13;;;1.00;;
51614;SDS011;37695;52.960;6.188;2022-07-15T14:18:34;0.73;;;0.63;;
51614;SDS011;37695;52.960;6.188;2022-07-15T14:23:34;1.30;;;0.70;;
51614;SDS011;37695;52.960;6.188;2022-07-15T14:26:00;3.13;;;0.90;;
51614;SDS011;37695;52.960;6.188;2022-07-15T14:28:26;1.27;;;0.73;;
51614;SDS011;37695;52.960;6.188;2022-07-15T14:30:52;1.88;;;0.90;;
51614;SDS011;37695;52.960;6.188;2022-07-15T14:33:18;1.13;;;0.80;;
51614;SDS011;37695;52.960;6.188;2022-07-15T14:35:43;2.08;;;0.60;;
51614;SDS011;37695;52.960;6.188;2022-07-15T14:38:09;1.70;;;0.85;;
51614;SDS011;37695;52.960;6.188;2022-07-15T14:40:36;1.77;;;0.80;;
51614;SDS011;37695;52.960;6.188;2022-07-15T14:43:01;1.67;;;1.00;;
51614;SDS011;37695;52.960;6.188;2022-07-15T14:45:27;2.55;;;1.00;;
51614;SDS011;37695;52.960;6.188;2022-07-15T14:47:53;1.40;;;0.80;;
51614;SDS011;37695;52.960;6.188;2022-07-15T14:50:19;3.38;;;0.90;;
51614;SDS011;37695;52.960;6.188;2022-07-15T14:52:44;1.95;;;0.73;;
51614;SDS011;37695;52.960;6.188;2022-07-15T14:55:10;3.30;;;1.15;;
51614;SDS011;37695;52.960;6.188;2022-07-15T14:57:36;2.58;;;0.70;;
51614;SDS011;37695;52.960;6.188;2022-07-15T15:00:02;1.70;;;0.90;;
51614;SDS011;37695;52.960;6.188;2022-07-15T15:02:28;1.60;;;0.93;;
51614;SDS011;37695;52.960;6.188;2022-07-15T15:04:54;2.40;;;0.90;;
51614;SDS011;37695;52.960;6.188;2022-07-15T15:07:19;2.55;;;1.23;;
51614;SDS011;37695;52.960;6.188;2022-07-15T15:09:45;1.98;;;0.90;;
51614;SDS011;37695;52.960;6.188;2022-07-15T15:12:10;2.92;;;1.40;;
51614;SDS011;37695;52.960;6.188;2022-07-15T15:14:36;4.22;;;1.33;;
51614;SDS011;37695;52.960;6.188;2022-07-15T15:17:02;1.35;;;0.90;;
51614;SDS011;37695;52.960;6.188;2022-07-15T15:19:28;2.78;;;1.00;;
51614;SDS011;37695;52.960;6.188;2022-07-15T15:21:53;2.35;;;1.10;;
51614;SDS011;37695;52.960;6.188;2022-07-15T15:24:19;3.60;;;0.82;;
51614;SDS011;37695;52.960;6.188;2022-07-15T15:26:44;4.60;;;0.95;;
51614;SDS011;37695;52.960;6.188;2022-07-15T15:29:10;2.08;;;1.08;;
51614;SDS011;37695;52.960;6.188;2022-07-15T15:31:35;3.30;;;1.00;;
51614;SDS011;37695;52.960;6.188;2022-07-15T15:34:01;2.65;;;1.00;;
51614;SDS011;37695;52.960;6.188;2022-07-15T15:36:27;3.17;;;1.08;;
51614;SDS011;37695;52.960;6.188;2022-07-15T15:38:52;2.70;;;0.90;;